Time;durP1;ratioP1;P1;durP2;ratioP2;P2;SDS_P1;SDS_P2;PMS_P1;PMS_P2;Temp;Humidity;BMP_temperature;BMP_pressure;BME280_temperature;BME280_humidity;BME280_pressure;Samples;Min_cycle;Max_cycle;Signal;HPM_P1;HPM_P2
2023/03/09 00:02:09;;;;;;;23.40;14.13;;;;;;;-141.97;56.39;47757.41;5001679;28;20169;-89
2023/03/09 00:04:35;;;;;;;31.07;18.93;;;;;;;-141.97;57.16;47580.59;4996986;28;20159;-90
2023/03/09 00:07:01;;;;;;;25.07;15.07;;;;;;;-141.97;57.40;47636.31;4994203;28;20263;-89
2023/03/09 00:09:26;;;;;;;22.80;13.47;;;;;;;-141.97;57.34;47624.78;5005021;28;20179;-89
2023/03/09 00:11:52;;;;;;;16.50;9.90;;;;;;;-141.97;56.96;47559.44;4993901;28;20211;-89
2023/03/09 00:14:21;;;;;;;17.87;9.40;;;;;;;-141.97;56.89;47661.31;4993437;28;20171;-89
2023/03/09 00:16:46;;;;;;;18.53;10.60;;;;;;;-141.97;56.13;47653.63;4996409;28;20164;-90
2023/03/09 00:19:20;;;;;;;16.17;9.90;;;;;;;-141.97;56.60;47622.88;4997458;28;20179;-90
2023/03/09 00:21:50;;;;;;;18.20;9.73;;;;;;;-141.97;55.93;47611.34;4996940;28;20191;-90
2023/03/09 00:24:18;;;;;;;18.77;11.47;;;;;;;-141.97;55.78;47561.38;4998449;28;20206;-89
2023/03/09 00:26:52;;;;;;;20.47;12.00;;;;;;;-141.97;55.70;47565.22;4997218;28;20178;-89
2023/03/09 00:29:18;;;;;;;19.77;11.13;;;;;;;-141.97;56.16;47674.78;4998067;28;20159;-89
2023/03/09 00:31:44;;;;;;;16.67;9.90;;;;;;;-141.97;57.00;47726.66;4998954;28;20175;-90
2023/03/09 00:34:11;;;;;;;15.63;9.40;;;;;;;-141.97;56.94;47609.41;4996053;28;20647;-90
2023/03/09 00:36:37;;;;;;;16.60;10.17;;;;;;;-141.97;56.97;47659.38;4996053;28;20170;-90
2023/03/09 00:39:04;;;;;;;13.97;8.20;;;;;;;-141.97;55.94;47680.53;4996416;28;20227;-87
2023/03/09 00:41:31;;;;;;;12.37;7.73;;;;;;;-141.97;54.88;47622.88;4997435;28;20160;-88
2023/03/09 00:43:58;;;;;;;13.23;7.57;;;;;;;-141.97;55.01;47661.31;4996269;28;20167;-88
2023/03/09 00:46:23;;;;;;;16.13;8.83;;;;;;;-141.97;56.06;47747.81;4995879;28;20182;-88
2023/03/09 00:48:49;;;;;;;15.27;8.70;;;;;;;-141.97;55.78;47657.47;4996280;28;20278;-89
2023/03/09 00:51:15;;;;;;;20.47;8.97;;;;;;;-141.97;55.54;47647.84;4996245;28;20183;-89
2023/03/09 00:53:41;;;;;;;12.20;8.27;;;;;;;-141.97;55.25;47649.78;4998053;28;20171;-89
2023/03/09 00:56:09;;;;;;;13.33;8.53;;;;;;;-141.97;55.93;47676.69;4997265;28;20585;-89
2023/03/09 00:58:35;;;;;;;16.80;8.87;;;;;;;-141.97;56.05;47572.91;4994962;28;20199;-89
2023/03/09 01:01:00;;;;;;;15.07;8.93;;;;;;;-141.97;55.97;47586.34;4996603;28;20176;-88
2023/03/09 01:03:26;;;;;;;13.93;8.40;;;;;;;-141.97;56.15;47661.31;4994697;28;20167;-88
2023/03/09 01:05:52;;;;;;;13.20;8.00;;;;;;;-141.97;56.19;47672.84;4996420;28;20170;-88
2023/03/09 01:08:18;;;;;;;13.17;7.83;;;;;;;-141.97;56.50;47728.59;4996804;28;20180;-89
2023/03/09 01:10:45;;;;;;;12.57;7.57;;;;;;;-141.97;56.28;47645.94;4994877;28;20627;-89
2023/03/09 01:13:10;;;;;;;13.33;7.60;;;;;;;-141.97;56.04;47638.25;4995241;28;20353;-89
2023/03/09 01:15:36;;;;;;;11.97;7.23;;;;;;;-141.97;56.13;47582.50;4996781;28;20600;-89
2023/03/09 01:18:02;;;;;;;11.03;7.20;;;;;;;-141.97;56.43;47649.78;5001633;28;20187;-88
2023/03/09 01:20:28;;;;;;;11.27;7.10;;;;;;;-141.97;56.53;47626.72;5004309;28;20156;-89
2023/03/09 01:22:53;;;;;;;12.37;6.80;;;;;;;-141.97;55.89;47572.91;5002697;28;20155;-89
2023/03/09 01:25:19;;;;;;;10.17;6.20;;;;;;;-141.97;55.27;47576.75;4998563;28;20171;-89
2023/03/09 01:27:44;;;;;;;13.53;6.23;;;;;;;-141.97;54.38;47592.13;5014858;28;20179;-89
2023/03/09 01:30:11;;;;;;;11.63;5.97;;;;;;;-141.97;53.85;47519.06;5014549;28;20209;-89
2023/03/09 01:32:37;;;;;;;9.77;6.47;;;;;;;-141.97;53.55;47561.38;5006088;28;20663;-89
2023/03/09 01:35:04;;;;;;;10.43;5.70;;;;;;;-141.97;53.02;47672.84;4996807;28;20195;-89
2023/03/09 01:37:29;;;;;;;9.33;6.13;;;;;;;-141.97;52.89;47519.06;4996486;28;20191;-89
2023/03/09 01:39:55;;;;;;;11.33;6.30;;;;;;;-141.97;52.84;47734.34;4997168;28;20226;-89
2023/03/09 01:42:20;;;;;;;9.70;5.80;;;;;;;-141.97;52.97;47569.06;4994214;28;20222;-88
2023/03/09 01:45:31;;;;;;;9.83;5.90;;;;;;;-141.97;52.76;47649.78;4995545;28;20167;-90
2023/03/09 01:47:58;;;;;;;13.13;6.00;;;;;;;-141.97;52.66;47622.88;4996009;28;20219;-89
2023/03/09 01:50:34;;;;;;;12.17;6.03;;;;;;;-141.97;53.28;47743.97;4995483;28;20256;-89
2023/03/09 01:53:07;;;;;;;9.83;5.80;;;;;;;-141.97;53.47;47503.69;4996212;28;20163;-89
2023/03/09 01:55:39;;;;;;;10.97;6.17;;;;;;;-141.97;53.99;47490.25;4996231;28;20225;-89
2023/03/09 01:58:26;;;;;;;9.00;5.93;;;;;;;-141.97;54.20;47557.53;4994952;28;20179;-89
2023/03/09 02:00:55;;;;;;;9.50;6.20;;;;;;;-141.97;54.55;47653.63;4994597;28;20229;-90
2023/03/09 02:03:29;;;;;;;9.47;6.03;;;;;;;-141.97;55.38;47828.53;4994517;28;20183;-89
2023/03/09 02:06:15;;;;;;;12.57;6.90;;;;;;;-141.97;55.41;47659.38;4995497;28;20163;-89
2023/03/09 02:09:01;;;;;;;9.27;6.07;;;;;;;-141.97;55.79;47553.69;4995730;28;20195;-89
2023/03/09 02:11:26;;;;;;;9.30;5.63;;;;;;;-141.97;55.44;47588.28;5006507;28;20171;-90
2023/03/09 02:13:53;;;;;;;9.50;5.77;;;;;;;-141.97;55.55;47599.81;4995402;28;20168;-89
2023/03/09 02:16:19;;;;;;;10.03;5.43;;;;;;;-141.97;55.76;47576.75;4995009;28;20169;-89
2023/03/09 02:18:44;;;;;;;7.60;5.27;;;;;;;-141.97;55.94;47605.56;4993401;28;20639;-89
2023/03/09 02:21:22;;;;;;;7.37;5.03;;;;;;;-141.97;56.04;47672.84;4996534;28;20174;-89
2023/03/09 02:24:04;;;;;;;8.40;5.10;;;;;;;-141.97;56.38;47472.94;4995699;28;20606;-89
2023/03/09 02:26:45;;;;;;;6.93;4.43;;;;;;;-141.97;56.35;47615.19;4994190;28;20171;-89
2023/03/09 02:29:12;;;;;;;19.37;11.00;;;;;;;-141.97;55.97;47586.34;4995811;28;20191;-90
2023/03/09 02:31:37;;;;;;;16.53;8.70;;;;;;;-141.97;56.27;47519.06;4993378;28;20175;-89
2023/03/09 02:34:03;;;;;;;15.97;7.70;;;;;;;-141.97;56.42;47665.16;4993715;28;20195;-90
2023/03/09 02:36:28;;;;;;;13.33;7.30;;;;;;;-141.97;56.95;47726.66;4994480;28;20242;-90
2023/03/09 02:38:55;;;;;;;12.13;7.67;;;;;;;-141.97;57.19;47619.03;4993859;28;20227;-89
2023/03/09 02:41:20;;;;;;;15.67;9.13;;;;;;;-141.97;58.36;47574.81;4996524;28;20737;-89
2023/03/09 02:43:51;;;;;;;19.93;10.37;;;;;;;-141.97;58.65;47653.63;4998705;28;20266;-91
2023/03/09 02:46:17;;;;;;;26.90;15.67;;;;;;;-141.97;59.33;47567.13;5016782;28;20159;-90
2023/03/09 02:48:42;;;;;;;21.80;12.47;;;;;;;-141.97;59.32;47620.94;5016156;28;20267;-91
2023/03/09 02:51:08;;;;;;;21.57;11.40;;;;;;;-141.97;59.48;47690.16;5011216;28;20636;-89
2023/03/09 02:53:34;;;;;;;24.13;10.83;;;;;;;-141.97;59.79;47665.16;5000772;28;20198;-89
2023/03/09 02:56:00;;;;;;;20.03;10.73;;;;;;;-141.97;60.16;47642.09;4995484;28;20636;-89
2023/03/09 02:58:25;;;;;;;15.57;9.20;;;;;;;-141.97;61.13;47684.38;4993119;28;20194;-89
2023/03/09 03:00:50;;;;;;;22.80;9.67;;;;;;;-141.97;60.84;47582.50;4997618;28;20164;-89
2023/03/09 03:03:19;;;;;;;19.20;10.43;;;;;;;-141.97;60.08;47619.03;4993018;28;20532;-88
2023/03/09 03:05:45;;;;;;;44.93;17.60;;;;;;;-141.97;60.27;47484.47;4994238;28;20163;-88
2023/03/09 03:08:11;;;;;;;24.50;11.00;;;;;;;-141.97;60.04;47576.75;4992675;28;20202;-89
2023/03/09 03:10:36;;;;;;;23.13;10.40;;;;;;;-141.97;59.88;47628.63;4995189;28;20645;-86
2023/03/09 03:13:01;;;;;;;17.03;8.37;;;;;;;-141.97;60.10;47613.25;5010383;28;20168;-89
2023/03/09 03:15:27;;;;;;;22.87;8.70;;;;;;;-141.97;60.64;47599.81;5013474;28;20178;-87
2023/03/09 03:17:52;;;;;;;20.83;9.63;;;;;;;-141.97;60.84;47615.19;4998816;28;20191;-89
2023/03/09 03:20:18;;;;;;;23.03;9.57;;;;;;;-141.97;60.76;47669.00;4992590;28;20171;-89
2023/03/09 03:22:43;;;;;;;20.53;10.80;;;;;;;-141.97;60.32;47644.00;4993919;28;20218;-89
2023/03/09 03:25:09;;;;;;;28.83;11.13;;;;;;;-141.97;61.10;47561.38;4993223;28;20178;-89
2023/03/09 03:27:35;;;;;;;27.23;11.07;;;;;;;-141.97;61.59;47599.81;4994296;28;20639;-89
2023/03/09 03:30:00;;;;;;;16.83;8.50;;;;;;;-141.97;61.09;47745.88;4992652;28;20258;-89
2023/03/09 03:32:26;;;;;;;13.70;8.60;;;;;;;-141.97;61.80;47665.16;4993118;28;20558;-89
2023/03/09 03:34:52;;;;;;;23.37;10.10;;;;;;;-141.97;62.19;47605.56;4992665;28;20221;-89
2023/03/09 03:37:17;;;;;;;18.20;10.13;;;;;;;-141.97;63.60;47576.75;4994016;28;20160;-89
2023/03/09 03:39:43;;;;;;;20.27;11.37;;;;;;;-141.97;63.46;47636.31;4992368;28;20230;-89
2023/03/09 03:42:08;;;;;;;26.70;16.70;;;;;;;-141.97;63.18;47745.88;4993533;28;20167;-89
2023/03/09 03:44:34;;;;;;;25.40;16.07;;;;;;;-141.97;63.04;47692.06;4993111;28;20168;-89
2023/03/09 03:46:59;;;;;;;33.60;20.67;;;;;;;-141.97;62.98;47653.63;4993702;28;20510;-89
2023/03/09 03:49:24;;;;;;;28.13;15.80;;;;;;;-141.97;62.73;47547.91;4993250;28;20181;-89
2023/03/09 03:51:50;;;;;;;28.57;16.83;;;;;;;-141.97;62.77;47522.91;5000689;28;20167;-89
2023/03/09 03:54:15;;;;;;;35.17;20.63;;;;;;;-141.97;63.07;47476.78;5022248;28;20190;-89
2023/03/09 03:56:41;;;;;;;20.43;11.63;;;;;;;-141.97;62.65;47567.13;5022722;28;20175;-89
2023/03/09 03:59:06;;;;;;;16.97;9.37;;;;;;;-141.97;61.66;47661.31;5009760;28;20254;-89
2023/03/09 04:01:32;;;;;;;14.47;8.50;;;;;;;-141.97;61.71;47753.56;5000133;28;20557;-89
2023/03/09 04:03:57;;;;;;;13.50;7.90;;;;;;;-141.97;61.70;47657.47;5000995;28;20199;-89
2023/03/09 04:06:22;;;;;;;12.97;7.10;;;;;;;-141.97;61.37;47534.44;4999502;28;20167;-90
2023/03/09 04:08:48;;;;;;;12.77;7.47;;;;;;;-141.97;60.94;47761.25;4998900;28;20213;-89
2023/03/09 04:11:13;;;;;;;14.33;6.93;;;;;;;-141.97;61.22;47617.09;4997999;28;20178;-89
2023/03/09 04:13:39;;;;;;;13.20;6.83;;;;;;;-141.97;61.33;47755.50;4999143;28;20171;-89
2023/03/09 04:16:04;;;;;;;11.87;6.53;;;;;;;-141.97;61.16;47653.63;4999472;28;20662;-90
2023/03/09 04:18:30;;;;;;;10.83;6.67;;;;;;;-141.97;60.67;47576.75;4998505;28;20617;-89
2023/03/09 04:20:55;;;;;;;10.43;6.17;;;;;;;-141.97;60.93;47561.38;5000566;28;20554;-89
2023/03/09 04:23:21;;;;;;;10.37;6.97;;;;;;;-141.97;60.67;47538.28;5000093;28;20163;-89
2023/03/09 04:25:55;;;;;;;11.73;6.60;;;;;;;-141.97;60.66;47651.69;4999854;28;20556;-89
2023/03/09 04:28:20;;;;;;;10.30;6.20;;;;;;;-141.97;60.14;47697.84;4999088;28;20627;-89
2023/03/09 04:30:46;;;;;;;11.27;6.27;;;;;;;-141.97;59.97;47801.63;4998553;28;20213;-88
2023/03/09 04:33:11;;;;;;;11.37;6.47;;;;;;;-141.97;59.84;47599.81;4997666;28;20283;-89
2023/03/09 04:35:37;;;;;;;10.20;6.47;;;;;;;-141.97;59.53;47534.44;4998221;28;20213;-89
2023/03/09 04:38:03;;;;;;;11.87;6.17;;;;;;;-141.97;59.61;47615.19;4999403;28;20227;-89
2023/03/09 04:40:28;;;;;;;10.97;5.50;;;;;;;-141.97;59.11;47588.28;4999379;28;20414;-89
2023/03/09 04:42:54;;;;;;;11.87;6.20;;;;;;;-141.97;59.57;47749.72;4997612;28;20202;-90
2023/03/09 04:45:19;;;;;;;13.07;6.33;;;;;;;-141.97;59.95;47611.34;4999637;28;20172;-89
2023/03/09 04:47:45;;;;;;;10.47;6.37;;;;;;;-141.97;59.93;47542.16;4999523;28;20187;-89
2023/03/09 04:50:11;;;;;;;11.70;6.57;;;;;;;-141.97;60.01;47553.69;4999756;28;20261;-89
2023/03/09 04:52:36;;;;;;;10.27;6.17;;;;;;;-141.97;60.53;47644.00;4999589;28;20222;-89
2023/03/09 04:55:02;;;;;;;11.77;6.33;;;;;;;-141.97;60.53;47642.09;4997610;28;20646;-90
2023/03/09 04:57:27;;;;;;;11.10;6.43;;;;;;;-141.97;60.96;47609.41;4998487;28;20163;-89
2023/03/09 04:59:53;;;;;;;10.47;6.57;;;;;;;-141.97;61.08;47599.81;5000630;28;20171;-89
2023/03/09 05:02:18;;;;;;;15.70;7.90;;;;;;;-141.97;60.79;47599.81;4995633;28;20190;-89
2023/03/09 05:04:44;;;;;;;22.63;7.93;;;;;;;-141.97;60.61;47599.81;4994468;28;20178;-89
2023/03/09 05:07:09;;;;;;;21.57;8.53;;;;;;;-141.97;60.80;47588.28;4994857;28;20262;-89
2023/03/09 05:09:34;;;;;;;23.80;12.80;;;;;;;-141.97;60.55;47542.16;5002264;28;20172;-88
2023/03/09 05:12:00;;;;;;;40.80;20.00;;;;;;;-141.97;60.23;47522.91;5002000;28;20230;-90
2023/03/09 05:14:25;;;;;;;42.57;21.40;;;;;;;-141.97;60.29;47642.09;4996363;28;20211;-88
2023/03/09 05:16:52;;;;;;;58.13;30.03;;;;;;;-141.97;60.08;47617.09;4994291;28;20211;-88
2023/03/09 05:19:18;;;;;;;53.33;26.10;;;;;;;-141.97;60.00;47553.69;4994923;28;20174;-88
2023/03/09 05:21:44;;;;;;;339.90;129.63;;;;;;;-141.97;60.04;47726.66;4997390;28;20230;-89
2023/03/09 05:24:09;;;;;;;191.40;83.47;;;;;;;-141.97;60.00;47665.16;4996826;28;20175;-90
2023/03/09 05:26:35;;;;;;;49.77;20.90;;;;;;;-141.97;59.28;47734.34;5011906;28;20179;-88
2023/03/09 05:29:00;;;;;;;98.97;42.27;;;;;;;-141.97;60.00;47647.84;5015475;28;20198;-89
2023/03/09 05:31:26;;;;;;;45.17;18.90;;;;;;;-141.97;60.53;47651.69;5022827;28;20172;-88
2023/03/09 05:33:54;;;;;;;30.83;14.17;;;;;;;-141.97;59.68;47782.41;5033514;28;20174;-88
2023/03/09 05:36:23;;;;;;;28.77;15.73;;;;;;;-141.97;59.64;47784.34;5032833;28;20263;-89
2023/03/09 05:38:49;;;;;;;30.97;15.47;;;;;;;-141.97;59.56;47670.91;5015308;28;20226;-89
2023/03/09 05:41:15;;;;;;;25.60;12.70;;;;;;;-141.97;59.20;47626.72;5014960;28;20221;-89
2023/03/09 05:43:44;;;;;;;25.77;12.77;;;;;;;-141.97;58.41;47530.59;5013705;28;20553;-89
2023/03/09 05:46:14;;;;;;;22.43;11.43;;;;;;;-141.97;57.95;47595.97;5013093;28;20197;-88
2023/03/09 05:48:41;;;;;;;17.10;10.43;;;;;;;-141.97;57.04;47667.06;5013351;28;20683;-88
2023/03/09 05:51:07;;;;;;;25.50;11.30;;;;;;;-141.97;57.41;47742.03;5014005;28;20241;-89
2023/03/09 05:53:34;;;;;;;40.80;20.33;;;;;;;-141.97;57.29;47561.38;5016069;28;20163;-88
2023/03/09 05:55:59;;;;;;;64.70;28.07;;;;;;;-141.97;57.15;47684.38;5014201;28;20166;-87
2023/03/09 05:58:25;;;;;;;52.03;25.23;;;;;;;-141.97;56.57;47624.78;5014415;28;20163;-88
2023/03/09 06:00:52;;;;;;;58.63;25.63;;;;;;;-141.97;56.04;47665.16;5015296;28;20167;-88
2023/03/09 06:03:18;;;;;;;55.10;23.50;;;;;;;-141.97;55.89;47717.06;5015584;28;20189;-88
2023/03/09 06:05:44;;;;;;;49.17;20.47;;;;;;;-141.97;55.32;47667.06;5014285;28;20166;-89
2023/03/09 06:08:09;;;;;;;52.20;22.40;;;;;;;-141.97;54.99;47569.06;5013482;28;20198;-88
2023/03/09 06:10:36;;;;;;;47.33;23.83;;;;;;;-141.97;54.22;47622.88;5012859;28;20194;-88
2023/03/09 06:13:01;;;;;;;56.00;27.17;;;;;;;-141.97;53.84;47584.44;5011893;28;20631;-89
2023/03/09 06:15:27;;;;;;;43.40;21.90;;;;;;;-141.97;53.13;47676.69;5013211;28;20177;-88
2023/03/09 06:17:53;;;;;;;47.07;24.83;;;;;;;-141.97;52.29;47619.03;5013038;28;20179;-89
2023/03/09 06:20:18;;;;;;;53.90;25.23;;;;;;;-141.97;52.17;47496.00;5037044;28;20182;-87
2023/03/09 06:22:44;;;;;;;47.50;21.00;;;;;;;-141.97;51.09;47572.91;5069219;22;20247;-89
2023/03/09 06:25:10;;;;;;;56.50;30.10;;;;;;;-141.97;50.70;47644.00;5049916;28;20186;-89
2023/03/09 06:27:37;;;;;;;61.33;32.10;;;;;;;-141.97;50.46;47647.84;5032278;28;20194;-89
2023/03/09 06:30:03;;;;;;;96.87;50.30;;;;;;;-141.97;49.57;47565.22;5034200;28;20216;-89
2023/03/09 06:32:32;;;;;;;67.17;37.87;;;;;;;-141.97;48.82;47547.91;5033354;28;20173;-88
2023/03/09 06:34:57;;;;;;;57.43;31.63;;;;;;;-141.97;47.87;47703.59;5034986;28;20263;-86
2023/03/09 06:37:23;;;;;;;29.73;17.00;;;;;;;-141.97;46.79;47701.69;5035082;28;20633;-87
2023/03/09 06:39:48;;;;;;;30.37;15.23;;;;;;;-141.97;46.47;47576.75;5025402;28;20174;-89
2023/03/09 06:42:13;;;;;;;34.07;16.30;;;;;;;-141.97;45.85;47757.41;5032595;28;20253;-89
2023/03/09 06:44:39;;;;;;;29.93;16.67;;;;;;;-141.97;46.91;47442.19;5035149;28;20661;-89
2023/03/09 06:47:04;;;;;;;22.20;12.10;;;;;;;-141.97;47.06;47799.72;5033850;28;20178;-89
2023/03/09 06:49:30;;;;;;;18.23;11.07;;;;;;;-141.97;47.39;47499.84;5032406;28;20171;-88
2023/03/09 06:51:57;;;;;;;17.43;8.10;;;;;;;-141.97;47.36;47736.28;5065957;28;20201;-89
2023/03/09 06:54:22;;;;;;;34.10;19.90;;;;;;;-141.97;46.94;47467.19;5032610;28;20265;-90
2023/03/09 06:56:48;;;;;;;18.23;9.70;;;;;;;-141.97;46.40;47711.28;5031541;28;20242;-86
2023/03/09 06:59:14;;;;;;;16.83;9.97;;;;;;;-141.97;46.24;47734.34;5034328;28;20181;-88
2023/03/09 07:01:40;;;;;;;15.70;10.07;;;;;;;-141.97;46.06;47613.25;5033751;28;20216;-89
2023/03/09 07:04:07;;;;;;;20.00;11.40;;;;;;;-141.97;45.43;47786.25;5031573;28;20189;-89
2023/03/09 07:06:32;;;;;;;23.10;13.80;;;;;;;-141.97;45.43;47653.63;5033084;28;20271;-89
2023/03/09 07:08:58;;;;;;;15.20;7.77;;;;;;;-141.97;45.08;47699.75;5032218;28;20240;-90
2023/03/09 07:11:23;;;;;;;18.77;6.80;;;;;;;-141.97;45.06;47538.28;5032381;28;20177;-90
2023/03/09 07:13:49;;;;;;;13.37;8.07;;;;;;;-141.97;45.33;47521.00;5032643;28;20170;-90
2023/03/09 07:16:14;;;;;;;13.17;7.53;;;;;;;-141.97;44.98;47634.41;5031585;28;20173;-88
2023/03/09 07:18:40;;;;;;;10.87;7.53;;;;;;;-141.97;44.87;47534.44;5031290;28;20192;-89
2023/03/09 07:21:06;;;;;;;16.30;8.07;;;;;;;-141.97;44.30;47678.63;5048821;28;20326;-89
2023/03/09 07:23:32;;;;;;;14.37;9.47;;;;;;;-141.97;44.72;47636.31;5053036;28;20165;-89
2023/03/09 07:26:00;;;;;;;14.17;8.47;;;;;;;-141.97;44.67;47761.25;5041276;28;20244;-89
2023/03/09 07:28:26;;;;;;;14.03;8.43;;;;;;;-141.97;44.72;47649.78;5032679;28;20192;-89
2023/03/09 07:30:52;;;;;;;11.53;7.47;;;;;;;-141.97;44.36;47684.38;5031301;28;20194;-90
2023/03/09 07:33:17;;;;;;;12.93;8.07;;;;;;;-141.97;43.47;47580.59;5033507;28;20752;-89
2023/03/09 07:35:42;;;;;;;15.17;8.03;;;;;;;-141.97;43.59;47480.63;5031177;28;20235;-89
2023/03/09 07:38:08;;;;;;;11.50;6.77;;;;;;;-141.97;43.81;47709.38;5032186;28;20170;-88
2023/03/09 07:40:34;;;;;;;11.40;6.30;;;;;;;-141.97;43.62;47761.25;5033820;28;20265;-89
2023/03/09 07:42:59;;;;;;;10.53;6.13;;;;;;;-141.97;44.08;47778.56;5032601;28;20173;-87
2023/03/09 07:45:25;;;;;;;13.77;7.27;;;;;;;-141.97;44.07;47653.63;5032496;28;20189;-87
2023/03/09 07:47:50;;;;;;;13.63;6.43;;;;;;;-141.97;44.42;47570.97;5035761;28;20682;-89
2023/03/09 07:50:17;;;;;;;11.93;6.40;;;;;;;-141.97;44.24;47653.63;5035611;28;20622;-87
2023/03/09 07:52:43;;;;;;;15.30;6.63;;;;;;;-141.97;43.89;47522.91;5034956;28;20165;-87
2023/03/09 07:55:11;;;;;;;9.40;5.90;;;;;;;-141.97;43.36;47544.06;5034455;28;20165;-86
2023/03/09 07:57:38;;;;;;;9.37;6.10;;;;;;;-141.97;42.71;47669.00;5036563;28;20170;-87
2023/03/09 08:00:10;;;;;;;10.63;6.23;;;;;;;-141.97;42.22;47651.69;5036264;28;20160;-87
2023/03/09 08:02:36;;;;;;;11.70;6.27;;;;;;;-141.97;41.89;47772.78;5041079;28;20266;-86
2023/03/09 08:05:01;;;;;;;10.60;5.70;;;;;;;-141.97;41.04;47745.88;5067074;28;20196;-88
2023/03/09 08:15:12;;;;;;;11.40;7.00;;;;;;;-141.97;38.64;47626.72;5067083;22;20713;-87
2023/03/09 08:17:39;;;;;;;9.63;6.23;;;;;;;-141.97;39.04;47611.34;5040911;28;20188;-87
2023/03/09 08:20:08;;;;;;;11.20;5.70;;;;;;;-141.97;39.65;47697.84;5044951;28;20177;-88
2023/03/09 08:22:34;;;;;;;8.83;5.03;;;;;;;-141.97;39.24;47538.28;5052030;28;20615;-87
2023/03/09 08:24:59;;;;;;;9.87;6.10;;;;;;;-141.97;39.85;47628.63;5023110;28;20226;-87
2023/03/09 08:27:25;;;;;;;13.93;7.97;;;;;;;-141.97;39.50;47626.72;5038250;28;20197;-87
2023/03/09 08:29:51;;;;;;;11.17;5.97;;;;;;;-141.97;38.48;47726.66;5050804;28;20169;-88
2023/03/09 08:32:17;;;;;;;10.00;5.93;;;;;;;-141.97;37.95;47465.25;5050750;28;20169;-87
2023/03/09 08:34:42;;;;;;;13.40;6.37;;;;;;;-141.97;37.28;47419.13;5051265;28;20173;-87
2023/03/09 08:37:08;;;;;;;10.03;5.27;;;;;;;-141.97;36.76;47438.34;5053961;28;20169;-87
2023/03/09 08:39:33;;;;;;;10.03;5.50;;;;;;;-141.97;36.67;47553.69;5055357;28;20165;-87
2023/03/09 08:41:59;;;;;;;9.87;4.53;;;;;;;-141.97;37.19;47584.44;5056607;28;20249;-87
2023/03/09 08:44:24;;;;;;;6.87;4.97;;;;;;;-141.97;37.11;47511.38;5059785;28;20162;-87
2023/03/09 08:46:49;;;;;;;6.50;4.23;;;;;;;-141.97;36.71;47642.09;5289746;22;20245;-87
2023/03/09 08:49:15;;;;;;;7.83;4.73;;;;;;;-141.97;37.36;47496.00;5071609;28;20216;-86
2023/03/09 08:51:40;;;;;;;8.87;5.80;;;;;;;-141.97;37.51;47476.78;5056655;28;20262;-86
2023/03/09 08:54:06;;;;;;;7.90;5.10;;;;;;;-141.97;36.85;47472.94;5049276;28;20174;-87
2023/03/09 08:56:31;;;;;;;9.00;5.57;;;;;;;-141.97;36.75;47615.19;5034169;28;20208;-86
2023/03/09 08:58:57;;;;;;;9.47;5.30;;;;;;;-141.97;35.83;47718.97;5035410;28;20186;-88
2023/03/09 09:01:23;;;;;;;7.90;5.33;;;;;;;-141.97;36.13;47561.38;5035536;28;20637;-87
2023/03/09 09:03:48;;;;;;;9.17;5.93;;;;;;;-141.97;36.37;47776.63;5037382;28;20245;-87
2023/03/09 09:06:15;;;;;;;8.67;5.40;;;;;;;-141.97;36.94;47670.91;5034139;28;20212;-87
2023/03/09 09:08:41;;;;;;;12.23;6.20;;;;;;;-141.97;37.37;47447.97;5033980;28;20190;-87
2023/03/09 09:11:13;;;;;;;9.43;5.67;;;;;;;-141.97;38.61;47795.88;5034327;28;20590;-87
2023/03/09 09:13:39;;;;;;;11.13;6.93;;;;;;;-141.97;38.12;47699.75;5033627;28;20646;-88
2023/03/09 09:16:06;;;;;;;6.03;3.93;;;;;;;-141.97;36.88;47599.81;5032893;28;20178;-88
2023/03/09 09:18:33;;;;;;;7.10;4.03;;;;;;;-141.97;36.46;47684.38;5034203;28;20162;-87
2023/03/09 09:21:02;;;;;;;6.00;3.67;;;;;;;-141.97;36.35;47561.38;5033121;28;20166;-87
2023/03/09 09:23:28;;;;;;;5.40;3.80;;;;;;;-141.97;36.54;47424.91;5033904;28;20173;-87
2023/03/09 09:25:56;;;;;;;8.87;4.00;;;;;;;-141.97;36.26;47607.50;5033062;28;20170;-87
2023/03/09 09:28:24;;;;;;;7.80;4.13;;;;;;;-141.97;35.93;47555.59;5033598;28;20244;-88
2023/03/09 09:30:58;;;;;;;7.40;4.07;;;;;;;-141.97;35.05;47707.44;5033187;28;20166;-88
2023/03/09 09:33:25;;;;;;;7.47;5.10;;;;;;;-141.97;35.51;47436.44;5032855;28;20626;-89
2023/03/09 09:35:58;;;;;;;10.50;8.43;;;;;;;-141.97;34.62;47601.72;5023813;28;20171;-89
2023/03/09 09:38:25;;;;;;;7.10;4.80;;;;;;;-141.97;34.25;47594.03;5014326;28;20645;-88
2023/03/09 09:40:53;;;;;;;35.50;23.07;;;;;;;-141.97;33.81;47670.91;5014755;28;20171;-88
2023/03/09 09:43:20;;;;;;;12.80;7.30;;;;;;;-141.97;33.64;47726.66;5014496;28;20181;-88
2023/03/09 09:45:47;;;;;;;25.90;14.80;;;;;;;-141.97;33.36;47511.38;5014672;28;20155;-90
2023/03/09 09:48:17;;;;;;;32.43;18.50;;;;;;;-141.97;33.06;47611.34;5016159;28;20246;-88
2023/03/09 09:51:21;;;;;;;12.80;8.40;;;;;;;-141.97;33.54;47576.75;5016561;28;20182;-87
2023/03/09 09:54:02;;;;;;;10.40;5.83;;;;;;;-141.97;34.55;47561.38;4957833;28;20188;-87
2023/03/09 09:56:41;;;;;;;8.30;4.80;;;;;;;-141.97;34.01;47755.50;4959926;28;20185;-86
2023/03/09 09:59:16;;;;;;;11.63;5.70;;;;;;;-141.97;34.41;47522.91;4956816;28;20230;-87
2023/03/09 10:01:50;;;;;;;6.57;4.57;;;;;;;-141.97;34.65;47619.03;4973445;28;20175;-88
2023/03/09 10:04:31;;;;;;;7.13;4.30;;;;;;;-141.97;33.74;47688.22;4974029;28;20183;-88
2023/03/09 10:07:00;;;;;;;14.83;6.33;;;;;;;-141.97;33.48;47663.22;4973678;28;20691;-86
2023/03/09 10:09:30;;;;;;;13.60;7.30;;;;;;;-141.97;32.83;47615.19;4973858;28;20223;-87
2023/03/09 10:12:06;;;;;;;10.50;5.90;;;;;;;-141.97;32.61;47557.53;4956854;28;20219;-87
2023/03/09 10:14:42;;;;;;;7.63;5.30;;;;;;;-141.97;32.22;47718.97;4973311;28;20167;-88
2023/03/09 10:17:28;;;;;;;6.33;4.00;;;;;;;-141.97;31.53;47580.59;4973291;28;20670;-89
2023/03/09 10:19:59;;;;;;;6.93;3.90;;;;;;;-141.97;31.79;47499.84;4956484;28;20176;-89
2023/03/09 10:22:27;;;;;;;6.13;4.20;;;;;;;-141.97;31.62;47403.75;4973823;28;20168;-88
2023/03/09 10:24:54;;;;;;;6.67;4.30;;;;;;;-141.97;30.66;47536.38;4957015;28;20295;-88
2023/03/09 10:27:29;;;;;;;5.30;3.40;;;;;;;-141.97;31.48;47599.81;4973662;28;20164;-88
2023/03/09 10:30:00;;;;;;;8.10;3.67;;;;;;;-141.97;31.27;47542.16;4983448;28;20225;-87
2023/03/09 10:32:52;;;;;;;8.30;3.80;;;;;;;-141.97;30.77;47421.06;5018029;28;20174;-88
2023/03/09 10:35:41;;;;;;;6.27;3.87;;;;;;;-141.97;30.77;47536.38;5011822;28;20201;-88
2023/03/09 10:38:17;;;;;;;8.60;4.00;;;;;;;-141.97;31.82;47565.22;4996086;28;20198;-88
2023/03/09 10:40:48;;;;;;;6.67;3.70;;;;;;;-141.97;32.20;47584.44;4998178;28;20175;-86
2023/03/09 10:43:28;;;;;;;9.30;3.90;;;;;;;-141.97;31.92;47711.28;5013180;28;20257;-89
2023/03/09 10:45:55;;;;;;;8.67;4.00;;;;;;;-141.97;31.69;47438.34;4997273;28;20190;-87
2023/03/09 10:48:23;;;;;;;5.20;3.83;;;;;;;-141.97;31.62;47690.16;5012752;28;20229;-89
2023/03/09 10:51:04;;;;;;;5.27;3.23;;;;;;;-141.97;31.87;47561.38;5013733;28;20582;-88
2023/03/09 10:53:48;;;;;;;4.93;3.20;;;;;;;-141.97;32.02;47572.91;4998501;28;20178;-88
2023/03/09 10:56:30;;;;;;;4.53;3.30;;;;;;;-141.97;31.89;47494.09;4995939;28;20194;-88
2023/03/09 10:59:07;;;;;;;6.30;3.47;;;;;;;-141.97;32.54;47595.97;4995137;28;20167;-88
2023/03/09 11:01:53;;;;;;;4.57;3.40;;;;;;;-141.97;32.62;47396.06;5013420;28;20277;-88
2023/03/09 11:04:24;;;;;;;4.80;3.70;;;;;;;-141.97;32.35;47580.59;4996793;28;20167;-88
2023/03/09 11:06:54;;;;;;;4.73;3.40;;;;;;;-141.97;32.01;47540.22;5013913;28;20237;-87
2023/03/09 11:09:41;;;;;;;4.90;3.10;;;;;;;-141.97;32.11;47542.16;5016844;28;20199;-88
2023/03/09 11:12:09;;;;;;;5.23;3.50;;;;;;;-141.97;32.10;47559.44;5020524;28;20167;-87
2023/03/09 11:14:46;;;;;;;5.27;3.23;;;;;;;-141.97;32.13;47415.28;5584967;22;20617;-87
2023/03/09 11:17:30;;;;;;;5.80;3.07;;;;;;;-141.97;31.72;47569.06;5071454;28;20188;-89
2023/03/09 11:20:23;;;;;;;4.13;3.27;;;;;;;-141.97;31.18;47530.59;5055958;28;20188;-89
2023/03/09 11:23:09;;;;;;;8.10;3.83;;;;;;;-141.97;31.00;47521.00;5058633;28;20575;-88